KLFT/LFT METAR and TAF weather

Enter ICAO airport designator
Station Type Date Time Source
KLFT METAR 2020/09/19 03:53 UTC NOAA

KLFT 190353Z AUTO 04006KT 10SM CLR 22/17 A2998 RMK AO2 SLP151 T02170172


Station Type Date Time Source
KLFT Decoded METAR 2020/09/19 03:53 UTC NOAA

LAFAYETTE REGIONAL AIRPORT, LA, United States (KLFT) 30-12N 092-00W 11M
Sep 18, 2020 - 11:53 PM EDT / 2020.09.19 0353 UTC
Wind: from the NE (040 degrees) at 7 MPH (6 KT):0
Visibility: 10 mile(s):0
Sky conditions: clear
Temperature: 71.1 F (21.7 C)
Dew Point: 63.0 F (17.2 C)
Relative Humidity: 75%
Pressure (altimeter): 29.98 in. Hg (1015 hPa)
ob: KLFT 190353Z AUTO 04006KT 10SM CLR 22/17 A2998 RMK AO2 SLP151 T02170172
cycle: 4

Station Type Date Time Source
KLFT TAF 2020/09/18 18:27 UTC NOAA

TAF KLFT 181724Z 1818/1918 02010KT P6SM OVC200
FM190200 02004KT P6SM SCT100 BKN250
FM191500 04010KT P6SM BKN100

Example: see airport list